createdAt,value
2023-03-14T00:01:21.271Z,13.02
2023-03-14T00:03:48.843Z,12.73
2023-03-14T00:06:16.641Z,10.70
2023-03-14T00:08:45.395Z,14.60
2023-03-14T00:11:18.800Z,14.52
2023-03-14T00:13:52.188Z,16.07
2023-03-14T00:16:20.848Z,15.27
2023-03-14T00:18:48.228Z,12.30
2023-03-14T00:21:19.077Z,9.73
2023-03-14T00:23:46.064Z,14.80
2023-03-14T00:26:18.511Z,20.27
2023-03-14T00:28:46.602Z,16.77
2023-03-14T00:31:16.781Z,16.27
2023-03-14T00:33:45.955Z,17.90
2023-03-14T00:36:17.702Z,19.50
2023-03-14T00:38:48.060Z,15.48
2023-03-14T00:41:23.695Z,17.92
2023-03-14T00:43:52.302Z,17.13
2023-03-14T00:46:19.512Z,21.95
2023-03-14T00:48:47.726Z,17.17
2023-03-14T00:51:16.009Z,10.43
2023-03-14T00:53:46.315Z,14.18
2023-03-14T00:56:15.027Z,20.13
2023-03-14T00:58:46.545Z,13.60
2023-03-14T01:01:19.529Z,15.90
2023-03-14T01:03:51.874Z,9.95
2023-03-14T01:06:25.072Z,15.23
2023-03-14T01:08:52.579Z,14.82
2023-03-14T01:11:35.997Z,11.52
2023-03-14T01:14:04.333Z,13.55
2023-03-14T01:16:35.938Z,11.60
2023-03-14T01:19:03.597Z,14.60
2023-03-14T01:21:36.489Z,14.40
2023-03-14T01:24:07.138Z,17.13
2023-03-14T01:26:36.513Z,12.48
2023-03-14T01:29:05.008Z,14.52
2023-03-14T01:31:31.812Z,16.48
2023-03-14T01:34:02.132Z,14.25
2023-03-14T01:36:30.668Z,12.85
2023-03-14T01:39:01.722Z,20.77
2023-03-14T01:41:28.604Z,13.07
2023-03-14T01:43:55.563Z,17.23
2023-03-14T01:46:49.576Z,13.00
2023-03-14T01:49:23.293Z,8.40
2023-03-14T01:52:08.797Z,18.80
2023-03-14T01:55:03.772Z,16.23
2023-03-14T02:00:17.845Z,16.50
2023-03-14T02:03:06.243Z,16.98
2023-03-14T02:05:42.388Z,16.42
2023-03-14T02:08:16.391Z,11.90
2023-03-14T02:10:50.192Z,14.77
2023-03-14T02:13:22.361Z,12.75
2023-03-14T02:15:51.219Z,16.45
2023-03-14T02:18:20.056Z,16.80
2023-03-14T02:21:34.435Z,15.48
2023-03-14T02:24:54.423Z,10.88
2023-03-14T02:27:22.923Z,11.75
2023-03-14T02:30:11.877Z,14.40
2023-03-14T02:32:49.733Z,15.27
2023-03-14T02:35:50.027Z,18.80
2023-03-14T02:38:38.697Z,11.70
2023-03-14T02:41:06.500Z,16.75
2023-03-14T02:43:33.535Z,12.57
2023-03-14T02:46:04.661Z,11.27
2023-03-14T02:49:08.630Z,10.00
2023-03-14T02:51:37.627Z,15.65
2023-03-14T02:54:04.740Z,13.57
2023-03-14T02:56:34.159Z,18.25
2023-03-14T02:59:06.906Z,11.35
2023-03-14T03:01:35.436Z,14.40
2023-03-14T03:04:05.248Z,13.30
2023-03-14T03:06:31.894Z,14.00
2023-03-14T03:08:58.757Z,15.52
2023-03-14T03:11:25.574Z,11.15
2023-03-14T03:13:54.569Z,10.02
2023-03-14T03:16:21.290Z,14.40
2023-03-14T03:18:48.013Z,13.18
2023-03-14T03:21:14.777Z,9.80
2023-03-14T03:23:42.081Z,14.95
2023-03-14T03:26:11.752Z,19.08
2023-03-14T03:28:38.472Z,14.98
2023-03-14T03:31:13.297Z,18.10
2023-03-14T03:33:43.666Z,14.48
2023-03-14T03:36:11.366Z,11.23
2023-03-14T03:38:38.110Z,16.27
2023-03-14T03:41:10.675Z,13.00
2023-03-14T03:43:37.371Z,10.77
2023-03-14T03:46:07.316Z,12.68
2023-03-14T03:48:36.226Z,10.77
2023-03-14T03:51:05.186Z,14.82
2023-03-14T03:53:33.820Z,9.18
2023-03-14T03:56:00.807Z,9.57
2023-03-14T03:58:27.567Z,9.85
2023-03-14T04:00:55.160Z,8.07
2023-03-14T04:03:21.759Z,10.65
2023-03-14T04:06:04.730Z,14.65
2023-03-14T04:08:31.988Z,10.57
2023-03-14T04:11:02.120Z,9.65
2023-03-14T04:13:29.740Z,13.50
2023-03-14T04:15:57.287Z,12.98
2023-03-14T04:18:28.502Z,15.65
2023-03-14T04:20:59.376Z,12.38
2023-03-14T04:23:26.738Z,16.15
2023-03-14T04:25:54.610Z,15.73
2023-03-14T04:28:21.426Z,31.48
2023-03-14T04:30:48.055Z,47.58
2023-03-14T04:33:18.194Z,17.60
2023-03-14T04:35:47.285Z,28.45
2023-03-14T04:38:17.551Z,50.08
2023-03-14T04:40:45.727Z,14.32
2023-03-14T04:43:14.475Z,15.52
2023-03-14T04:45:44.748Z,22.25
2023-03-14T04:48:11.707Z,12.82
2023-03-14T04:50:45.467Z,14.15
2023-03-14T04:53:12.106Z,11.43
2023-03-14T04:55:38.909Z,9.50
2023-03-14T04:58:08.964Z,11.23
2023-03-14T05:00:37.180Z,8.75
2023-03-14T05:03:08.753Z,9.70
2023-03-14T05:05:35.522Z,8.60
2023-03-14T05:08:02.234Z,8.50
2023-03-14T05:10:29.148Z,8.77
2023-03-14T05:13:16.074Z,12.80
2023-03-14T05:15:42.950Z,9.90
2023-03-14T05:18:09.550Z,8.95
2023-03-14T05:20:36.659Z,8.73
2023-03-14T05:23:03.411Z,8.13
2023-03-14T05:25:32.285Z,9.15
2023-03-14T05:27:59.425Z,6.65
2023-03-14T05:30:26.075Z,8.43
2023-03-14T05:32:52.998Z,8.13
2023-03-14T05:35:20.207Z,10.75
2023-03-14T05:37:47.224Z,12.20
2023-03-14T05:40:17.273Z,13.07
2023-03-14T05:42:46.450Z,9.40
2023-03-14T05:45:13.218Z,14.32
2023-03-14T05:47:43.087Z,17.60
2023-03-14T05:50:11.637Z,7.85
2023-03-14T05:52:38.516Z,10.10
2023-03-14T05:55:08.885Z,6.53
2023-03-14T05:57:35.676Z,7.80
2023-03-14T06:00:02.529Z,7.45
2023-03-14T06:02:29.455Z,8.63
2023-03-14T06:04:58.991Z,7.72
2023-03-14T06:07:28.904Z,5.82
2023-03-14T06:09:59.463Z,6.97
2023-03-14T06:12:26.385Z,7.72
2023-03-14T06:14:53.015Z,13.05
2023-03-14T06:17:19.743Z,10.75
2023-03-14T06:19:46.376Z,8.75
2023-03-14T06:22:14.992Z,11.52
2023-03-14T06:24:44.985Z,9.13
2023-03-14T06:35:26.094Z,10.00
2023-03-14T06:51:17.966Z,9.88
2023-03-14T06:59:15.449Z,9.32
2023-03-14T07:01:45.238Z,12.73
2023-03-14T07:04:14.655Z,17.35
2023-03-14T07:06:45.348Z,11.13
2023-03-14T07:09:13.765Z,22.30
2023-03-14T07:11:43.977Z,15.68
2023-03-14T07:14:10.944Z,24.48
2023-03-14T07:16:37.878Z,22.13
2023-03-14T07:19:09.688Z,38.63
2023-03-14T07:21:36.439Z,18.60
2023-03-14T07:24:03.263Z,83.53
2023-03-14T07:26:30.361Z,56.70
2023-03-14T07:28:57.313Z,18.50
2023-03-14T07:31:24.639Z,25.75
2023-03-14T07:33:51.415Z,29.60
2023-03-14T07:36:18.383Z,16.13
2023-03-14T07:38:45.300Z,13.80
2023-03-14T07:41:12.252Z,22.95
2023-03-14T07:43:40.311Z,55.13
2023-03-14T07:46:07.748Z,41.30
2023-03-14T07:48:42.728Z,23.85
2023-03-14T07:51:14.416Z,42.17
2023-03-14T07:53:47.247Z,40.15
2023-03-14T07:56:13.934Z,26.25
2023-03-14T07:58:44.271Z,34.20
2023-03-14T08:01:17.246Z,23.50
2023-03-14T08:03:44.177Z,28.23
2023-03-14T08:06:14.009Z,12.38
2023-03-14T08:08:43.687Z,19.58
2023-03-14T08:11:13.688Z,9.45
2023-03-14T08:13:50.353Z,20.48
2023-03-14T08:16:18.490Z,10.77
2023-03-14T08:18:49.461Z,7.57
2023-03-14T08:21:16.177Z,8.75
2023-03-14T08:23:42.926Z,7.93
2023-03-14T08:26:15.904Z,7.03
2023-03-14T08:28:44.968Z,6.30
2023-03-14T08:31:11.915Z,10.80
2023-03-14T08:33:38.792Z,12.02
2023-03-14T08:36:05.999Z,26.67
2023-03-14T08:38:32.727Z,31.10
2023-03-14T08:41:05.090Z,21.13
2023-03-14T08:43:31.966Z,23.70
2023-03-14T08:46:01.596Z,22.98
2023-03-14T08:48:33.029Z,20.48
2023-03-14T08:51:09.178Z,25.92
2023-03-14T08:53:36.087Z,16.58
2023-03-14T08:56:07.274Z,54.58
2023-03-14T08:58:34.944Z,26.42
2023-03-14T09:01:01.667Z,12.60
2023-03-14T09:03:33.952Z,36.88
2023-03-14T09:06:08.666Z,13.70
2023-03-14T09:08:38.199Z,13.98
2023-03-14T09:11:09.874Z,13.27
2023-03-14T09:13:37.242Z,21.95
2023-03-14T09:16:05.121Z,22.25
2023-03-14T09:18:31.768Z,46.15
2023-03-14T09:20:58.547Z,3.65
2023-03-14T09:23:25.747Z,11.02
2023-03-14T09:26:04.133Z,14.60
2023-03-14T09:28:31.416Z,10.70
2023-03-14T09:30:58.879Z,4.45
2023-03-14T09:33:25.952Z,7.88
2023-03-14T09:35:52.776Z,4.68
2023-03-14T09:38:21.858Z,7.13
2023-03-14T09:40:50.399Z,7.70
2023-03-14T09:43:18.159Z,9.45
2023-03-14T09:45:49.798Z,10.57
2023-03-14T09:48:27.250Z,14.30
2023-03-14T09:51:00.383Z,11.38
2023-03-14T09:53:46.653Z,14.55
2023-03-14T09:56:26.775Z,7.53
2023-03-14T09:59:04.548Z,7.75
2023-03-14T10:01:34.585Z,6.28
2023-03-14T10:04:18.483Z,6.03
2023-03-14T10:06:45.745Z,4.25
2023-03-14T10:09:30.767Z,17.33
2023-03-14T10:12:08.895Z,6.00
2023-03-14T10:14:47.010Z,8.25
2023-03-14T10:17:21.307Z,11.98
2023-03-14T10:22:35.960Z,5.30
2023-03-14T10:25:26.893Z,6.47
2023-03-14T10:27:53.583Z,7.40
2023-03-14T10:30:48.021Z,6.10
2023-03-14T10:33:26.848Z,8.55
2023-03-14T10:36:31.087Z,9.55
2023-03-14T10:39:44.196Z,14.30
2023-03-14T10:42:30.842Z,9.15
2023-03-14T10:45:07.057Z,12.48
2023-03-14T10:47:42.420Z,7.45
2023-03-14T10:50:32.784Z,7.28
2023-03-14T10:53:07.665Z,8.80
2023-03-14T10:55:46.237Z,8.25
2023-03-14T10:58:44.567Z,9.55
2023-03-14T11:01:36.231Z,9.27
2023-03-14T11:04:50.300Z,9.00
2023-03-14T11:07:44.322Z,6.18
2023-03-14T11:10:42.312Z,7.30
2023-03-14T11:13:36.983Z,9.45
2023-03-14T11:16:48.167Z,7.45
2023-03-14T11:19:41.414Z,4.80
2023-03-14T11:22:54.040Z,6.55
2023-03-14T11:26:11.981Z,5.85
2023-03-14T11:28:58.499Z,6.93
2023-03-14T11:31:32.807Z,7.20
2023-03-14T11:37:26.200Z,5.65
2023-03-14T11:40:24.692Z,4.40
2023-03-14T11:43:29.533Z,6.85
2023-03-14T11:46:08.575Z,9.18
2023-03-14T11:48:50.160Z,5.60
2023-03-14T11:51:34.101Z,7.82
2023-03-14T11:54:17.561Z,5.03
2023-03-14T11:57:00.515Z,5.70
2023-03-14T11:59:56.565Z,9.52
2023-03-14T12:02:53.135Z,11.50
2023-03-14T12:05:57.251Z,7.97
2023-03-14T12:09:01.199Z,9.63
2023-03-14T12:12:00.680Z,9.27
2023-03-14T12:14:35.815Z,10.20
2023-03-14T12:17:37.256Z,10.23
2023-03-14T12:20:21.312Z,5.47
2023-03-14T12:23:11.611Z,14.68
2023-03-14T12:25:38.417Z,10.02
2023-03-14T12:28:31.696Z,8.32
2023-03-14T12:31:30.714Z,5.00
2023-03-14T12:34:23.231Z,7.40
2023-03-14T12:37:37.739Z,6.93
2023-03-14T12:40:27.419Z,7.40
2023-03-14T12:43:21.939Z,7.32
2023-03-14T12:46:22.288Z,9.57
2023-03-14T12:49:01.969Z,7.43
2023-03-14T12:51:47.089Z,13.70
2023-03-14T12:55:35.479Z,8.45
2023-03-14T12:58:24.423Z,9.18
2023-03-14T13:01:02.053Z,10.45
2023-03-14T13:03:56.327Z,13.25
2023-03-14T13:07:04.447Z,9.10
2023-03-14T13:09:33.968Z,9.68
2023-03-14T13:12:14.107Z,12.73
2023-03-14T13:14:52.725Z,12.38
2023-03-14T13:17:37.358Z,8.93
2023-03-14T13:20:33.086Z,9.88
2023-03-14T13:22:59.902Z,9.15
2023-03-14T13:25:34.977Z,7.70
2023-03-14T13:28:06.320Z,11.32
2023-03-14T13:30:55.677Z,9.23
2023-03-14T13:33:24.733Z,21.77
2023-03-14T13:36:10.738Z,14.43
2023-03-14T13:38:37.647Z,15.25
2023-03-14T13:41:09.330Z,10.80
2023-03-14T13:43:49.337Z,6.07
2023-03-14T13:46:26.496Z,9.38
2023-03-14T13:49:01.200Z,12.43
2023-03-14T13:51:34.021Z,7.03
2023-03-14T13:54:02.026Z,5.78
2023-03-14T13:56:33.937Z,10.57
2023-03-14T13:59:00.814Z,6.53
2023-03-14T14:01:35.457Z,9.63
2023-03-14T14:04:27.368Z,13.15
2023-03-14T14:07:01.070Z,14.13
2023-03-14T14:09:47.277Z,13.45
2023-03-14T14:12:44.283Z,7.25
2023-03-14T14:15:27.099Z,7.00
2023-03-14T14:18:01.574Z,6.15
2023-03-14T14:20:58.910Z,9.98
2023-03-14T14:23:34.123Z,9.07
2023-03-14T14:26:01.298Z,4.70
2023-03-14T14:28:41.854Z,7.22
2023-03-14T14:31:26.185Z,5.18
2023-03-14T14:34:02.636Z,6.13
2023-03-14T14:36:49.301Z,7.22
2023-03-14T14:39:29.942Z,7.45
2023-03-14T14:41:56.839Z,5.85
2023-03-14T14:44:47.106Z,5.55
2023-03-14T14:47:23.880Z,8.18
2023-03-14T14:49:59.672Z,4.53
2023-03-14T14:52:49.359Z,7.13
2023-03-14T14:55:29.442Z,5.18
2023-03-14T14:57:57.573Z,5.75
2023-03-14T15:00:28.596Z,4.40
2023-03-14T15:03:03.833Z,4.18
2023-03-14T15:05:32.661Z,5.50
2023-03-14T15:07:59.506Z,5.80
2023-03-14T15:10:27.244Z,3.72
2023-03-14T15:12:54.312Z,3.88
2023-03-14T15:15:24.544Z,6.93
2023-03-14T15:17:51.208Z,5.90
2023-03-14T15:20:20.331Z,7.28
2023-03-14T15:22:48.160Z,8.70
2023-03-14T15:25:51.350Z,8.02
2023-03-14T15:28:28.497Z,11.85
2023-03-14T15:30:59.612Z,8.95
2023-03-14T15:33:28.766Z,6.85
2023-03-14T15:35:58.009Z,5.82
2023-03-14T15:38:31.046Z,7.35
2023-03-14T15:40:58.000Z,4.75
2023-03-14T15:43:24.746Z,6.35
2023-03-14T15:45:54.757Z,7.63
2023-03-14T15:48:26.137Z,10.70
2023-03-14T15:50:52.808Z,7.90
2023-03-14T15:53:19.572Z,6.93
2023-03-14T15:55:46.286Z,7.93
2023-03-14T15:58:22.047Z,8.02
2023-03-14T16:00:51.107Z,8.57
2023-03-14T16:03:21.489Z,5.28
2023-03-14T16:05:52.834Z,6.35
2023-03-14T16:08:39.045Z,6.13
2023-03-14T16:11:06.111Z,7.97
2023-03-14T16:13:33.506Z,5.32
2023-03-14T16:16:06.083Z,8.38
2023-03-14T16:18:38.481Z,7.05
2023-03-14T16:21:15.871Z,7.13
2023-03-14T16:23:42.909Z,6.55
2023-03-14T16:26:16.913Z,12.63
2023-03-14T16:28:46.097Z,6.35
2023-03-14T16:31:29.499Z,3.92
2023-03-14T16:33:56.221Z,8.20
2023-03-14T16:36:25.387Z,6.93
2023-03-14T16:38:52.253Z,3.90
2023-03-14T16:41:27.580Z,3.05
2023-03-14T16:43:54.897Z,5.90
2023-03-14T16:46:22.885Z,3.60
2023-03-14T16:48:59.764Z,6.65
2023-03-14T16:51:29.008Z,7.47
2023-03-14T16:53:55.783Z,5.93
2023-03-14T16:56:26.043Z,10.40
2023-03-14T16:58:52.892Z,4.93
2023-03-14T17:01:21.578Z,7.03
2023-03-14T17:03:51.887Z,6.82
2023-03-14T17:06:29.088Z,8.82
2023-03-14T17:09:00.177Z,5.63
2023-03-14T17:11:27.671Z,7.70
2023-03-14T17:13:54.407Z,7.00
2023-03-14T17:16:23.424Z,12.90
2023-03-14T17:18:50.360Z,5.50
2023-03-14T17:21:17.307Z,6.28
2023-03-14T17:23:44.336Z,15.05
2023-03-14T17:26:12.901Z,4.40
2023-03-14T17:28:43.593Z,5.50
2023-03-14T17:31:18.570Z,5.55
2023-03-14T17:33:53.966Z,6.90
2023-03-14T17:36:32.761Z,9.95
2023-03-14T17:38:59.736Z,7.93
2023-03-14T17:41:30.158Z,10.98
2023-03-14T17:43:57.424Z,10.57
2023-03-14T17:46:33.097Z,6.35
2023-03-14T17:49:02.932Z,5.22
2023-03-14T17:51:32.794Z,11.90
2023-03-14T17:53:59.680Z,14.02
2023-03-14T17:56:29.644Z,8.48
2023-03-14T17:58:59.901Z,10.00
2023-03-14T18:25:53.241Z,5.68
2023-03-14T18:28:22.006Z,7.28
2023-03-14T18:30:52.353Z,4.07
2023-03-14T18:44:13.182Z,4.40
2023-03-14T18:54:53.384Z,8.38
2023-03-14T18:57:20.113Z,9.05
2023-03-14T19:46:14.254Z,4.40
2023-03-14T20:21:15.951Z,5.75
2023-03-14T20:37:15.602Z,4.47
2023-03-14T20:42:28.514Z,8.35
2023-03-14T20:50:18.145Z,9.05
2023-03-14T20:52:45.470Z,5.10
2023-03-14T21:05:59.918Z,7.20
2023-03-14T22:16:52.799Z,8.38
2023-03-14T22:19:22.016Z,4.70
2023-03-14T22:40:47.777Z,4.88
2023-03-14T22:43:14.937Z,4.03
2023-03-14T22:45:47.494Z,4.40
2023-03-14T22:48:15.174Z,2.90
2023-03-14T22:50:44.892Z,3.83
2023-03-14T22:53:11.664Z,3.95
2023-03-14T22:55:38.493Z,4.07
2023-03-14T22:58:05.602Z,3.75
2023-03-14T23:00:35.368Z,4.30
2023-03-14T23:03:02.310Z,5.72
2023-03-14T23:05:31.802Z,7.60
2023-03-14T23:08:02.492Z,4.97
2023-03-14T23:10:29.458Z,8.48
2023-03-14T23:12:59.342Z,3.30
2023-03-14T23:15:27.961Z,4.55
2023-03-14T23:17:54.819Z,3.75
2023-03-14T23:20:21.489Z,5.72
2023-03-14T23:22:48.105Z,4.88
2023-03-14T23:25:15.036Z,3.92
2023-03-14T23:27:49.206Z,4.60
2023-03-14T23:30:17.481Z,7.45
2023-03-14T23:32:44.453Z,3.42
2023-03-14T23:35:13.704Z,5.05
2023-03-14T23:37:42.784Z,4.05
2023-03-14T23:40:10.895Z,3.92
2023-03-14T23:42:48.094Z,4.20
2023-03-14T23:45:16.198Z,5.18
2023-03-14T23:47:45.444Z,6.20
2023-03-14T23:50:12.198Z,3.92
2023-03-14T23:52:44.808Z,4.35
2023-03-14T23:55:11.811Z,4.80
2023-03-14T23:57:44.709Z,5.25
